Yale, IL

3:16 PM CDT on April 18, 2015 (GMT -0500)
APRSWXNET | | Change Station
CLOSE
Current Station
Personal Weather Station
Location: Casey, IL
Elevation: 652 ft
Nearby Weather Stations

Elev 652 ft 39.30 °N, 87.98 °W | Updated 26 minutes ago

Partly Cloudy
Partly Cloudy
75 °F
Feels Like 78 °F
N
1
Wind Variable Wind from South
Gusts 7.0 mph

Today
High -- | Low -- °F
--% Chance of Precip.
Yesterday
High -- | Low -- °F
Precip. -- in
6:11 AM 7:32 PM
New Moon, 0% visible
Pressure 29.97 in
Visibility 10.0 miles
Clouds Clear
Heat Index 78 °F
Dew Point 53 °F
Humidity 46%
Rainfall in
Snow Depth Not available.
UV 8 out of 12
Pollen 10.90 out of 12
Air Quality Not available.
Flu Activity Regional
METAR KRSV 181955Z AUTO 10006KT 10SM CLR 25/08 A2997 RMK AO2 T02500083

More Conditions Fewer Conditions

Pressure 29.97 in
Visibility 10.0 miles
Clouds Clear
Heat Index 78 °F
Dew Point 53 °F
Humidity 46%
Rainfall in
Snow Depth Not available.
UV 8 out of 12
Pollen 10.90 out of 12
Air Quality Not available.
Flu Activity Regional
METAR KRSV 181955Z AUTO 10006KT 10SM CLR 25/08 A2997 RMK AO2 T02500083

More Conditions Fewer Conditions

10-Day Weather Forecast

Almanac

Astronomy

Apr. 18, 2015 Rise Set
Actual Time
Civil Twilight
Nautical Twilight
Astronomical Twilight
Moon
Length of Visible Light
Length of Day
Tomorrow will be .
, % of the Moon is Illuminated

Today's Extremes

State Highs State Lows

Community

WunderPhotos

Upload Photos

1,814,513 photos uploaded!

WunderBlogs® & News

Nearby

Air Quality

  Air Quality AQ Index Pollutant
Not available.

Snow Depth

Station Depth Elevation

Earthquake Activity

City Distance Mag. Time & Date
Minimum magnitude displayed is 2.5.

Coastal Water Temperatures

Place Temperature

Stations

Nearby Weather Stations

Station Location Temp. Windchill Dew Point Humidity Wind Precip. Elev Updated Type